URSS

Sochi International

Airport
ICAO code
URSS
Summary
ICAO Region
APAC
ICAO Territory
Location

Sochi, Krasnodar Krai,

Coordinates
43° 26' 39" N , 39° 56' 36" E
KCC
Cfa
Metar
Observation
URSS 120130Z 03003MPS 9999 VCTS -SHRA SCT015 BKN031CB BKN080 24/22 Q1009 R02/010070 R06/010070 NOSIG RMK R06/08003MPS MT OBSC QFE756
Station
Adler
Date/Time
2022-08-12 01:30:00
Wind direction
30°
Lowest cloud amount
scattered clouds
Temperature
24°C
Dew point
22°C
Humidity
88%
QNH
1009 hPa
Weather condition
in vicinity: showers thunderstorm

Description

Airport located in Adler District of the resort city of Sochi situated at the Black Sea coast in Krasnodar Krai, Russia.

Climatology

Humid “subtropical” climate (Köppen climate classification Cfa) - characterized by hot, humid summers and cool winters. Significant amounts of precipitation occur in all seasons in most areas. Winter rainfall (and sometimes snowfall) is associated with large storms that the westerlies steer from west to east. Most summer rainfall occurs during thunderstorms.

Runways

Designator Length Width Surface Rops
2/20 2200 49 CON Yes/Yes
6/24 2890 50 CON Yes/Yes

Airport map

Aerial View

SKYbrary Partners:

Safety knowledge contributed by: